createdAt,value
2022-08-04T00:01:17.818Z,19.80
2022-08-04T00:06:14.334Z,19.90
2022-08-04T00:11:02.936Z,19.90
2022-08-04T00:15:53.935Z,20.00
2022-08-04T00:20:43.017Z,20.00
2022-08-04T00:25:39.292Z,20.00
2022-08-04T00:30:26.686Z,20.00
2022-08-04T00:35:16.068Z,19.80
2022-08-04T00:40:15.104Z,19.80
2022-08-04T00:46:16.131Z,19.70
2022-08-04T00:50:59.694Z,19.60
2022-08-04T00:56:06.505Z,19.50
2022-08-04T01:01:00.638Z,19.40
2022-08-04T01:05:58.713Z,19.40
2022-08-04T01:10:58.325Z,19.30
2022-08-04T01:16:00.457Z,19.20
2022-08-04T01:20:57.273Z,19.30
2022-08-04T01:26:42.459Z,19.20
2022-08-04T01:31:27.265Z,19.30
2022-08-04T01:36:13.109Z,19.10
2022-08-04T01:40:59.276Z,19.00
2022-08-04T01:45:43.456Z,18.90
2022-08-04T01:50:32.622Z,18.70
2022-08-04T01:55:18.291Z,18.60
2022-08-04T02:00:02.535Z,18.50
2022-08-04T02:04:47.817Z,18.50
2022-08-04T02:09:54.610Z,18.50
2022-08-04T02:14:46.649Z,18.40
2022-08-04T02:19:34.677Z,18.40
2022-08-04T02:24:23.409Z,18.20
2022-08-04T02:29:18.254Z,18.20
2022-08-04T02:34:09.153Z,18.10
2022-08-04T02:38:58.903Z,18.10
2022-08-04T02:43:52.045Z,18.00
2022-08-04T02:48:39.477Z,18.20
2022-08-04T02:53:24.289Z,18.40
2022-08-04T02:58:09.413Z,18.60
2022-08-04T03:03:01.456Z,18.70
2022-08-04T03:08:09.236Z,18.90
2022-08-04T03:13:18.241Z,19.00
2022-08-04T03:18:28.195Z,19.20
2022-08-04T03:23:43.567Z,19.40
2022-08-04T03:29:06.201Z,19.50
2022-08-04T03:34:14.340Z,19.60
2022-08-04T03:39:24.427Z,19.60
2022-08-04T03:44:31.454Z,19.60
2022-08-04T03:50:04.462Z,19.50
2022-08-04T03:55:22.076Z,19.70
2022-08-04T04:00:10.795Z,19.80
2022-08-04T04:05:18.768Z,20.00
2022-08-04T04:10:28.839Z,20.30
2022-08-04T04:15:36.727Z,20.60
2022-08-04T04:20:53.420Z,20.70
2022-08-04T04:25:51.212Z,20.90
2022-08-04T04:30:46.713Z,21.00
2022-08-04T04:35:40.122Z,21.30
2022-08-04T04:40:35.401Z,21.60
2022-08-04T04:45:33.855Z,21.90
2022-08-04T04:50:30.038Z,22.20
2022-08-04T04:55:22.827Z,22.50
2022-08-04T05:00:09.917Z,22.80
2022-08-04T05:05:26.274Z,23.10
2022-08-04T05:10:22.577Z,23.40
2022-08-04T05:15:11.654Z,23.70
2022-08-04T05:20:05.463Z,23.90
2022-08-04T05:24:51.014Z,24.20
2022-08-04T05:29:41.047Z,24.50
2022-08-04T05:34:29.383Z,24.70
2022-08-04T05:39:20.320Z,25.10
2022-08-04T05:44:06.618Z,25.30
2022-08-04T05:48:51.825Z,25.60
2022-08-04T05:53:36.420Z,25.80
2022-08-04T05:58:22.083Z,26.10
2022-08-04T06:03:06.859Z,26.40
2022-08-04T06:08:12.789Z,26.70
2022-08-04T06:12:57.904Z,26.90
2022-08-04T06:18:32.771Z,27.20
2022-08-04T06:22:58.776Z,27.40
2022-08-04T06:27:43.210Z,27.70
2022-08-04T06:32:40.047Z,27.80
2022-08-04T06:37:43.179Z,28.00
2022-08-04T06:42:28.821Z,28.40
2022-08-04T06:47:13.946Z,28.90
2022-08-04T06:51:59.404Z,29.10
2022-08-04T06:56:45.847Z,29.30
2022-08-04T07:01:30.625Z,29.70
2022-08-04T07:06:15.226Z,29.80
2022-08-04T07:10:59.914Z,30.30
2022-08-04T07:15:47.032Z,31.00
2022-08-04T07:20:36.567Z,31.30
2022-08-04T07:25:22.157Z,31.40
2022-08-04T07:30:27.800Z,31.50
2022-08-04T07:36:09.295Z,32.00
2022-08-04T07:40:18.436Z,32.20
2022-08-04T07:45:02.434Z,32.70
2022-08-04T07:49:55.459Z,33.10
2022-08-04T07:54:43.597Z,33.00
2022-08-04T07:59:27.616Z,33.30
2022-08-04T08:04:12.937Z,33.00
2022-08-04T08:08:57.074Z,33.40
2022-08-04T08:13:43.950Z,33.70
2022-08-04T08:18:27.845Z,33.70
2022-08-04T08:23:12.150Z,34.10
2022-08-04T08:27:57.776Z,34.90
2022-08-04T08:32:43.879Z,35.00
2022-08-04T08:37:34.889Z,35.20
2022-08-04T08:42:48.949Z,35.50
2022-08-04T08:48:04.982Z,35.70
2022-08-04T08:53:04.168Z,36.20
2022-08-04T08:58:13.771Z,36.30
2022-08-04T09:03:34.132Z,36.40
2022-08-04T09:08:32.492Z,36.80
2022-08-04T09:13:21.664Z,36.80
2022-08-04T09:18:11.128Z,36.90
2022-08-04T09:23:05.800Z,36.70
2022-08-04T09:27:55.063Z,37.00
2022-08-04T09:32:50.386Z,37.80
2022-08-04T09:37:45.627Z,38.00
2022-08-04T09:42:39.613Z,38.10
2022-08-04T09:47:41.073Z,38.20
2022-08-04T09:52:40.050Z,38.20
2022-08-04T09:57:38.541Z,38.30
2022-08-04T10:03:01.147Z,38.40
2022-08-04T10:08:16.141Z,38.20
2022-08-04T10:13:23.160Z,38.70
2022-08-04T10:18:27.219Z,38.70
2022-08-04T10:23:29.250Z,38.40
2022-08-04T10:28:17.717Z,38.40
2022-08-04T10:33:09.628Z,37.70
2022-08-04T10:38:06.220Z,36.60
2022-08-04T10:43:01.754Z,36.80
2022-08-04T10:48:04.139Z,36.90
2022-08-04T10:52:55.728Z,36.80
2022-08-04T10:57:46.504Z,37.00
2022-08-04T11:02:45.247Z,37.90
2022-08-04T11:07:50.190Z,37.60
2022-08-04T11:12:50.095Z,38.00
2022-08-04T11:17:38.898Z,38.90
2022-08-04T11:22:28.188Z,39.30
2022-08-04T11:27:17.449Z,39.50
2022-08-04T11:32:06.048Z,38.60
2022-08-04T11:36:56.556Z,39.10
2022-08-04T11:41:48.313Z,38.70
2022-08-04T11:46:38.254Z,39.30
2022-08-04T11:51:25.344Z,38.80
2022-08-04T11:56:36.043Z,39.40
2022-08-04T12:01:26.854Z,39.90
2022-08-04T12:06:18.969Z,38.70
2022-08-04T12:11:20.665Z,39.10
2022-08-04T12:16:12.100Z,39.10
2022-08-04T12:21:01.222Z,39.40
2022-08-04T12:25:53.107Z,39.00
2022-08-04T12:31:00.158Z,39.20
2022-08-04T12:36:10.237Z,38.80
2022-08-04T12:40:59.511Z,39.40
2022-08-04T12:45:51.056Z,38.90
2022-08-04T12:50:36.554Z,38.20
2022-08-04T12:55:24.025Z,38.10
2022-08-04T13:00:09.835Z,37.70
2022-08-04T13:04:56.598Z,37.90
2022-08-04T13:09:48.677Z,38.50
2022-08-04T13:14:39.913Z,38.90
2022-08-04T13:19:23.797Z,38.70
2022-08-04T13:24:21.117Z,38.30
2022-08-04T13:29:16.683Z,38.00
2022-08-04T13:34:07.748Z,38.20
2022-08-04T13:39:08.569Z,37.70
2022-08-04T13:44:19.132Z,36.80
2022-08-04T13:49:28.463Z,36.30
2022-08-04T13:54:13.548Z,36.50
2022-08-04T13:59:01.713Z,36.30
2022-08-04T14:04:00.886Z,36.00
2022-08-04T14:08:56.403Z,36.50
2022-08-04T14:13:42.135Z,37.00
2022-08-04T14:18:38.651Z,37.20
2022-08-04T14:23:25.344Z,37.80
2022-08-04T14:28:47.266Z,38.20
2022-08-04T14:34:01.141Z,38.50
2022-08-04T14:38:50.546Z,37.80
2022-08-04T14:43:34.229Z,37.10
2022-08-04T14:48:18.789Z,37.20
2022-08-04T14:53:07.048Z,36.60
2022-08-04T14:58:36.646Z,37.10
2022-08-04T15:03:04.847Z,37.20
2022-08-04T15:07:48.606Z,36.70
2022-08-04T15:12:33.771Z,36.40
2022-08-04T15:17:29.893Z,36.70
2022-08-04T15:22:17.361Z,36.60
2022-08-04T15:27:06.535Z,35.90
2022-08-04T15:32:06.307Z,35.60
2022-08-04T15:36:56.844Z,35.50
2022-08-04T15:41:55.076Z,36.00
2022-08-04T15:47:19.066Z,36.60
2022-08-04T15:52:22.935Z,37.10
2022-08-04T15:57:08.048Z,36.90
2022-08-04T16:02:28.405Z,36.50
2022-08-04T16:07:13.944Z,35.90
2022-08-04T16:11:58.556Z,35.40
2022-08-04T16:16:50.751Z,35.30
2022-08-04T16:21:50.175Z,35.30
2022-08-04T16:26:54.384Z,34.90
2022-08-04T16:31:40.515Z,35.00
2022-08-04T16:36:56.507Z,35.20
2022-08-04T16:41:41.672Z,35.30
2022-08-04T16:47:08.782Z,35.40
2022-08-04T16:51:46.864Z,35.40
2022-08-04T16:56:33.583Z,35.30
2022-08-04T17:01:21.985Z,35.00
2022-08-04T17:06:19.548Z,34.90
2022-08-04T17:11:03.979Z,34.80
2022-08-04T17:15:50.044Z,34.40
2022-08-04T17:21:01.760Z,34.10
2022-08-04T17:25:54.925Z,33.90
2022-08-04T17:30:39.086Z,33.50
2022-08-04T17:35:38.883Z,33.10
2022-08-04T17:40:25.902Z,32.70
2022-08-04T17:50:26.921Z,32.10
2022-08-04T17:55:13.622Z,31.60
2022-08-04T18:00:00.664Z,31.10
2022-08-04T18:05:06.061Z,30.70
2022-08-04T18:10:07.734Z,30.30
2022-08-04T18:15:02.857Z,29.90
2022-08-04T18:19:55.440Z,29.60
2022-08-04T18:24:55.684Z,29.60
2022-08-04T18:29:40.881Z,29.90
2022-08-04T18:34:55.051Z,30.00
2022-08-04T18:40:19.557Z,29.90
2022-08-04T18:44:52.106Z,29.80
2022-08-04T18:50:59.018Z,29.60
2022-08-04T18:54:42.146Z,29.30
2022-08-04T18:59:25.974Z,29.10
2022-08-04T19:04:34.248Z,28.70
2022-08-04T19:09:21.809Z,28.40
2022-08-04T19:14:13.229Z,28.20
2022-08-04T19:18:57.795Z,27.90
2022-08-04T19:24:27.130Z,27.60
2022-08-04T19:28:45.246Z,27.30
2022-08-04T19:33:59.354Z,27.00
2022-08-04T19:38:37.955Z,26.50
2022-08-04T19:43:22.864Z,26.30
2022-08-04T19:53:37.611Z,25.70
2022-08-04T19:58:27.206Z,25.40
2022-08-04T20:03:13.789Z,25.10
2022-08-04T20:08:04.520Z,24.90
2022-08-04T20:12:55.677Z,24.70
2022-08-04T20:18:07.489Z,24.60
2022-08-04T20:22:52.377Z,24.50
2022-08-04T20:27:38.528Z,24.60
2022-08-04T20:32:42.755Z,24.60
2022-08-04T20:37:55.522Z,24.60
2022-08-04T20:42:44.977Z,24.60
2022-08-04T20:47:35.752Z,24.40
2022-08-04T20:52:21.190Z,24.30
2022-08-04T20:57:05.113Z,24.30
2022-08-04T21:01:49.504Z,24.20
2022-08-04T21:06:37.421Z,24.10
2022-08-04T21:31:02.487Z,23.90
2022-08-04T21:35:56.187Z,23.70
2022-08-04T21:40:41.533Z,23.60
2022-08-04T21:45:25.912Z,23.60
2022-08-04T21:50:21.840Z,23.60
2022-08-04T21:55:07.538Z,23.60
2022-08-04T21:59:51.897Z,23.70
2022-08-04T22:04:39.340Z,23.70
2022-08-04T22:09:30.266Z,23.80
2022-08-04T22:14:29.493Z,23.60
2022-08-04T22:19:24.061Z,23.70
2022-08-04T22:24:23.162Z,23.70
2022-08-04T22:29:14.404Z,23.70
2022-08-04T22:34:00.111Z,23.80
2022-08-04T22:38:50.349Z,23.80
2022-08-04T22:43:37.610Z,23.80
2022-08-04T22:48:23.083Z,23.80
2022-08-04T22:53:11.630Z,23.90
2022-08-04T22:58:04.864Z,23.90
2022-08-04T23:02:53.640Z,23.90
2022-08-04T23:07:48.967Z,24.00
2022-08-04T23:12:33.745Z,23.90
2022-08-04T23:17:18.827Z,23.70
2022-08-04T23:22:04.521Z,23.70
2022-08-04T23:26:49.736Z,23.50
2022-08-04T23:31:41.208Z,23.30
2022-08-04T23:36:32.679Z,23.20
2022-08-04T23:41:54.083Z,23.10
2022-08-04T23:46:46.839Z,22.80
2022-08-04T23:51:35.067Z,22.60
2022-08-04T23:56:20.054Z,22.60
